createdAt,value
2022-09-25T00:00:14.346Z,4.03
2022-09-25T00:02:59.748Z,4.28
2022-09-25T00:05:45.977Z,4.13
2022-09-25T00:08:31.724Z,4.03
2022-09-25T00:11:25.405Z,4.03
2022-09-25T00:14:10.611Z,4.50
2022-09-25T00:16:56.124Z,4.60
2022-09-25T00:19:50.170Z,5.82
2022-09-25T00:22:35.761Z,7.10
2022-09-25T00:25:21.330Z,5.40
2022-09-25T00:28:07.112Z,6.18
2022-09-25T00:30:52.743Z,6.10
2022-09-25T00:33:38.386Z,5.40
2022-09-25T00:36:23.968Z,6.80
2022-09-25T00:39:09.773Z,6.40
2022-09-25T00:41:55.329Z,5.88
2022-09-25T00:44:52.092Z,6.25
2022-09-25T00:47:51.281Z,6.65
2022-09-25T00:50:44.952Z,5.80
2022-09-25T00:53:34.708Z,6.40
2022-09-25T00:56:20.341Z,5.78
2022-09-25T00:59:10.325Z,5.97
2022-09-25T01:01:56.757Z,6.18
2022-09-25T01:04:46.080Z,6.25
2022-09-25T01:07:39.250Z,5.97
2022-09-25T01:10:24.788Z,5.32
2022-09-25T01:13:11.345Z,5.85
2022-09-25T01:16:04.148Z,5.70
2022-09-25T01:19:22.312Z,5.45
2022-09-25T01:22:26.868Z,5.57
2022-09-25T01:25:26.135Z,5.72
2022-09-25T01:28:24.143Z,5.20
2022-09-25T01:31:18.244Z,5.97
2022-09-25T01:34:56.511Z,5.67
2022-09-25T01:37:52.536Z,5.53
2022-09-25T01:40:59.279Z,5.80
2022-09-25T01:43:58.426Z,6.00
2022-09-25T01:46:51.543Z,6.25
2022-09-25T01:49:44.509Z,5.30
2022-09-25T01:52:43.036Z,6.28
2022-09-25T01:55:41.021Z,5.55
2022-09-25T01:58:34.550Z,5.87
2022-09-25T02:01:25.844Z,6.25
2022-09-25T02:04:24.983Z,5.65
2022-09-25T02:07:16.960Z,5.35
2022-09-25T02:10:08.311Z,6.13
2022-09-25T02:12:58.568Z,5.63
2022-09-25T02:15:49.976Z,6.18
2022-09-25T02:18:55.029Z,5.65
2022-09-25T02:21:54.960Z,6.78
2022-09-25T02:24:58.906Z,6.38
2022-09-25T02:27:45.775Z,6.63
2022-09-25T02:30:31.626Z,7.30
2022-09-25T02:33:17.297Z,7.78
2022-09-25T02:36:04.834Z,6.57
2022-09-25T02:38:53.292Z,7.00
2022-09-25T02:41:54.432Z,7.32
2022-09-25T02:45:23.586Z,8.27
2022-09-25T02:48:28.607Z,7.85
2022-09-25T02:51:28.356Z,7.60
2022-09-25T02:54:31.483Z,7.38
2022-09-25T02:57:29.328Z,7.82
2022-09-25T03:00:15.105Z,7.03
2022-09-25T03:03:03.878Z,7.28
2022-09-25T03:05:52.346Z,6.82
2022-09-25T03:08:43.583Z,6.95
2022-09-25T03:11:28.955Z,6.35
2022-09-25T03:14:14.285Z,7.45
2022-09-25T03:17:04.780Z,7.63
2022-09-25T03:19:50.342Z,7.90
2022-09-25T03:22:37.506Z,6.00
2022-09-25T03:25:22.824Z,6.82
2022-09-25T03:28:12.118Z,6.05
2022-09-25T03:31:07.981Z,5.47
2022-09-25T03:33:53.404Z,4.72
2022-09-25T03:36:39.253Z,5.70
2022-09-25T03:39:24.530Z,5.65
2022-09-25T03:42:10.239Z,6.35
2022-09-25T03:44:55.711Z,4.53
2022-09-25T03:47:41.238Z,4.78
2022-09-25T03:50:27.628Z,4.60
2022-09-25T03:53:13.194Z,5.05
2022-09-25T03:55:58.621Z,5.40
2022-09-25T03:58:44.437Z,5.55
2022-09-25T04:01:29.948Z,5.30
2022-09-25T04:04:15.308Z,4.90
2022-09-25T04:07:00.918Z,5.20
2022-09-25T04:09:46.294Z,4.47
2022-09-25T04:12:31.797Z,4.70
2022-09-25T04:15:17.872Z,4.80
2022-09-25T04:18:06.159Z,4.00
2022-09-25T04:20:51.927Z,5.07
2022-09-25T04:23:38.189Z,4.97
2022-09-25T04:26:23.738Z,4.85
2022-09-25T04:29:09.188Z,4.87
2022-09-25T04:32:13.532Z,4.20
2022-09-25T04:34:59.321Z,4.85
2022-09-25T04:37:44.655Z,4.43
2022-09-25T04:40:30.974Z,4.85
2022-09-25T04:43:16.468Z,4.60
2022-09-25T04:46:07.903Z,3.90
2022-09-25T04:48:53.491Z,4.40
2022-09-25T04:51:39.264Z,4.70
2022-09-25T04:54:24.629Z,4.10
2022-09-25T04:57:11.287Z,4.43
2022-09-25T04:59:57.406Z,3.95
2022-09-25T05:02:43.088Z,5.32
2022-09-25T05:05:30.467Z,4.70
2022-09-25T05:08:16.228Z,5.00
2022-09-25T05:11:01.725Z,4.93
2022-09-25T05:13:51.293Z,5.53
2022-09-25T05:16:36.930Z,6.30
2022-09-25T05:19:22.156Z,6.30
2022-09-25T05:22:07.879Z,7.75
2022-09-25T05:24:58.662Z,7.68
2022-09-25T05:27:44.375Z,8.18
2022-09-25T05:30:32.080Z,7.25
2022-09-25T05:33:18.948Z,6.88
2022-09-25T05:36:06.231Z,8.30
2022-09-25T05:38:51.911Z,9.05
2022-09-25T05:41:37.724Z,7.78
2022-09-25T05:44:24.882Z,8.10
2022-09-25T05:47:10.496Z,7.85
2022-09-25T05:49:56.498Z,8.67
2022-09-25T05:52:41.830Z,7.75
2022-09-25T05:55:27.965Z,8.95
2022-09-25T05:58:13.530Z,7.72
2022-09-25T06:01:06.035Z,8.65
2022-09-25T06:03:51.364Z,7.15
2022-09-25T06:06:36.653Z,7.35
2022-09-25T06:09:22.140Z,7.50
2022-09-25T06:12:07.851Z,7.45
2022-09-25T06:14:53.457Z,8.05
2022-09-25T06:17:39.144Z,7.35
2022-09-25T06:20:25.154Z,7.50
2022-09-25T06:23:10.918Z,6.90
2022-09-25T06:26:04.339Z,6.13
2022-09-25T06:28:50.022Z,6.63
2022-09-25T06:31:35.402Z,6.25
2022-09-25T06:34:21.075Z,6.05
2022-09-25T06:37:06.727Z,5.93
2022-09-25T06:39:52.355Z,6.18
2022-09-25T06:42:38.394Z,5.07
2022-09-25T06:45:24.595Z,6.07
2022-09-25T06:48:13.127Z,6.03
2022-09-25T06:50:59.685Z,6.05
2022-09-25T06:53:45.621Z,6.10
2022-09-25T06:56:30.902Z,6.72
2022-09-25T06:59:16.886Z,6.88
2022-09-25T07:02:22.542Z,6.70
2022-09-25T07:05:09.120Z,6.85
2022-09-25T07:07:55.765Z,6.72
2022-09-25T07:10:47.363Z,6.73
2022-09-25T07:13:35.936Z,7.15
2022-09-25T07:16:24.135Z,6.75
2022-09-25T07:19:09.567Z,6.83
2022-09-25T07:21:55.336Z,7.40
2022-09-25T07:24:40.367Z,6.17
2022-09-25T07:27:25.940Z,6.10
2022-09-25T07:30:11.370Z,6.33
2022-09-25T07:33:00.097Z,5.90
2022-09-25T07:35:46.095Z,6.68
2022-09-25T07:38:31.726Z,6.00
2022-09-25T07:41:18.865Z,5.90
2022-09-25T07:44:28.030Z,5.63
2022-09-25T07:47:13.462Z,5.88
2022-09-25T07:49:59.278Z,5.80
2022-09-25T07:52:44.790Z,6.28
2022-09-25T07:55:30.426Z,5.67
2022-09-25T07:58:15.998Z,5.72
2022-09-25T08:01:04.576Z,5.13
2022-09-25T08:03:49.926Z,5.05
2022-09-25T08:06:35.531Z,5.30
2022-09-25T08:09:21.106Z,4.90
2022-09-25T08:12:09.980Z,5.05
2022-09-25T08:14:55.224Z,4.95
2022-09-25T08:17:41.577Z,4.85
2022-09-25T08:20:27.213Z,5.05
2022-09-25T08:23:12.765Z,4.90
2022-09-25T08:25:59.163Z,4.75
2022-09-25T08:28:44.624Z,4.38
2022-09-25T08:31:30.029Z,4.55
2022-09-25T08:34:39.530Z,4.88
2022-09-25T08:37:21.730Z,4.55
2022-09-25T08:40:17.725Z,4.20
2022-09-25T08:43:04.610Z,4.10
2022-09-25T08:46:10.175Z,4.03
2022-09-25T08:49:05.841Z,4.60
2022-09-25T08:51:53.835Z,4.15
2022-09-25T08:54:42.087Z,3.35
2022-09-25T08:57:34.876Z,4.05
2022-09-25T09:00:22.904Z,3.97
2022-09-25T09:03:10.677Z,3.72
2022-09-25T09:06:05.700Z,3.35
2022-09-25T09:08:58.305Z,3.67
2022-09-25T09:11:58.617Z,4.03
2022-09-25T09:14:48.016Z,3.72
2022-09-25T09:17:41.285Z,3.92
2022-09-25T09:20:42.987Z,3.53
2022-09-25T09:23:58.813Z,4.03
2022-09-25T09:27:14.529Z,3.72
2022-09-25T09:30:20.824Z,4.75
2022-09-25T09:33:35.642Z,3.83
2022-09-25T09:36:39.735Z,4.00
2022-09-25T09:39:25.273Z,3.50
2022-09-25T09:42:17.470Z,3.58
2022-09-25T09:45:31.531Z,4.65
2022-09-25T09:48:36.641Z,3.83
2022-09-25T09:51:27.930Z,3.55
2022-09-25T09:54:21.205Z,3.90
2022-09-25T09:57:35.027Z,3.90
2022-09-25T10:00:22.946Z,3.17
2022-09-25T10:03:23.558Z,3.10
2022-09-25T10:06:16.229Z,3.13
2022-09-25T10:09:04.505Z,3.45
2022-09-25T10:12:01.786Z,3.55
2022-09-25T10:14:48.183Z,3.47
2022-09-25T10:17:36.030Z,3.45
2022-09-25T10:20:23.683Z,3.58
2022-09-25T10:23:38.846Z,3.55
2022-09-25T10:26:38.479Z,3.57
2022-09-25T10:29:27.640Z,2.60
2022-09-25T10:32:13.313Z,3.33
2022-09-25T10:34:59.504Z,2.72
2022-09-25T10:37:50.865Z,2.50
2022-09-25T10:40:38.534Z,2.80
2022-09-25T10:43:24.219Z,2.30
2022-09-25T10:46:14.064Z,2.45
2022-09-25T10:49:32.896Z,2.38
2022-09-25T10:52:22.136Z,1.95
2022-09-25T10:55:25.340Z,1.80
2022-09-25T10:58:10.568Z,1.80
2022-09-25T11:00:59.305Z,2.03
2022-09-25T11:04:10.572Z,1.77
2022-09-25T11:07:00.346Z,1.23
2022-09-25T11:09:45.740Z,1.70
2022-09-25T11:12:32.449Z,1.60
2022-09-25T11:15:23.575Z,1.40
2022-09-25T11:18:41.251Z,1.73
2022-09-25T11:21:36.054Z,1.50
2022-09-25T11:24:29.856Z,1.63
2022-09-25T11:27:43.703Z,1.57
2022-09-25T11:30:39.405Z,1.92
2022-09-25T11:33:43.356Z,1.87
2022-09-25T11:36:56.848Z,1.90
2022-09-25T11:40:08.359Z,2.00
2022-09-25T11:43:04.423Z,2.10
2022-09-25T11:46:07.498Z,1.92
2022-09-25T11:49:19.047Z,2.00
2022-09-25T11:52:20.177Z,2.20
2022-09-25T11:55:42.832Z,2.13
2022-09-25T11:58:45.840Z,1.70
2022-09-25T12:01:37.706Z,1.67
2022-09-25T12:04:46.516Z,1.70
2022-09-25T12:07:56.594Z,1.73
2022-09-25T12:11:01.612Z,1.90
2022-09-25T12:14:13.972Z,1.77
2022-09-25T12:17:23.892Z,1.75
2022-09-25T12:20:23.567Z,1.90
2022-09-25T12:23:23.522Z,1.80
2022-09-25T12:26:21.745Z,1.95
2022-09-25T12:29:46.258Z,1.20
2022-09-25T12:32:58.642Z,1.05
2022-09-25T12:35:52.635Z,1.10
2022-09-25T12:38:59.910Z,0.80
2022-09-25T12:41:51.914Z,0.90
2022-09-25T12:44:54.839Z,0.93
2022-09-25T12:47:50.892Z,0.60
2022-09-25T12:50:43.800Z,0.60
2022-09-25T12:53:43.100Z,0.70
2022-09-25T12:56:45.415Z,0.80
2022-09-25T12:59:52.861Z,1.00
2022-09-25T13:02:47.945Z,0.85
2022-09-25T13:05:37.832Z,0.68
2022-09-25T13:08:33.730Z,0.65
2022-09-25T13:11:38.964Z,0.63
2022-09-25T13:14:39.815Z,0.50
2022-09-25T13:17:25.407Z,0.70
2022-09-25T13:20:29.513Z,0.98
2022-09-25T13:23:27.238Z,1.08
2022-09-25T13:26:24.318Z,0.95
2022-09-25T13:29:35.334Z,1.20
2022-09-25T13:32:23.362Z,1.33
2022-09-25T13:35:20.465Z,1.63
2022-09-25T13:38:37.704Z,1.05
2022-09-25T13:41:23.544Z,1.27
2022-09-25T13:44:57.052Z,1.33
2022-09-25T13:48:06.053Z,0.80
2022-09-25T13:51:18.658Z,1.13
2022-09-25T13:54:25.655Z,1.15
2022-09-25T13:57:13.072Z,1.25
2022-09-25T14:00:03.633Z,2.00
2022-09-25T14:02:50.428Z,1.35
2022-09-25T14:05:37.168Z,0.88
2022-09-25T14:08:23.661Z,0.70
2022-09-25T14:11:14.497Z,0.93
2022-09-25T14:14:04.649Z,0.80
2022-09-25T14:16:51.943Z,0.90
2022-09-25T14:19:41.311Z,1.10
2022-09-25T14:22:36.192Z,0.70
2022-09-25T14:25:33.825Z,0.52
2022-09-25T14:28:27.713Z,0.70
2022-09-25T14:31:34.943Z,0.82
2022-09-25T14:34:43.396Z,0.70
2022-09-25T14:38:07.359Z,0.70
2022-09-25T14:41:22.465Z,0.63
2022-09-25T14:44:41.758Z,0.60
2022-09-25T14:47:44.430Z,0.53
2022-09-25T14:50:35.820Z,0.80
2022-09-25T14:53:39.915Z,0.57
2022-09-25T14:56:26.358Z,0.70
2022-09-25T14:59:16.556Z,0.40
2022-09-25T15:02:03.491Z,0.50
2022-09-25T15:04:49.295Z,0.50
2022-09-25T15:07:42.573Z,0.70
2022-09-25T15:10:38.651Z,0.50
2022-09-25T15:13:24.270Z,0.47
2022-09-25T15:16:47.461Z,0.40
2022-09-25T15:19:38.738Z,0.80
2022-09-25T15:22:28.297Z,0.40
2022-09-25T15:25:27.233Z,0.50
2022-09-25T15:28:16.299Z,0.70
2022-09-25T15:31:04.287Z,0.50
2022-09-25T15:34:10.974Z,0.70
2022-09-25T15:37:17.115Z,0.40
2022-09-25T15:40:27.865Z,0.50
2022-09-25T15:43:16.280Z,0.65
2022-09-25T15:46:08.002Z,0.70
2022-09-25T15:48:58.637Z,0.43
2022-09-25T15:51:52.702Z,0.60
2022-09-25T15:54:44.530Z,0.45
2022-09-25T15:57:32.044Z,0.50
2022-09-25T16:00:40.007Z,0.60
2022-09-25T16:03:49.497Z,0.70
2022-09-25T16:06:40.359Z,0.60
2022-09-25T16:09:47.067Z,0.50
2022-09-25T16:12:47.651Z,0.60
2022-09-25T16:15:44.509Z,0.50
2022-09-25T16:18:39.586Z,0.50
2022-09-25T16:21:29.835Z,0.50
2022-09-25T16:24:21.166Z,0.90
2022-09-25T16:27:07.427Z,0.43
2022-09-25T16:29:55.633Z,0.60
2022-09-25T16:32:49.110Z,0.67
2022-09-25T16:36:05.351Z,0.70
2022-09-25T16:39:04.004Z,0.80
2022-09-25T16:41:50.412Z,0.80
2022-09-25T16:44:40.163Z,0.90
2022-09-25T16:47:28.861Z,0.93
2022-09-25T16:50:14.861Z,0.90
2022-09-25T16:53:03.509Z,0.85
2022-09-25T16:55:51.018Z,0.95
2022-09-25T16:58:37.446Z,0.80
2022-09-25T17:01:26.016Z,1.20
2022-09-25T17:04:14.045Z,1.10
2022-09-25T17:06:59.695Z,0.95
2022-09-25T17:09:45.407Z,0.73
2022-09-25T17:12:31.447Z,0.88
2022-09-25T17:15:27.450Z,0.77
2022-09-25T17:18:21.281Z,0.63
2022-09-25T17:21:15.301Z,0.93
2022-09-25T17:24:01.120Z,0.90
2022-09-25T17:26:47.368Z,0.60
2022-09-25T17:29:32.787Z,0.60
2022-09-25T17:32:18.180Z,0.93
2022-09-25T17:35:14.766Z,0.65
2022-09-25T17:38:01.456Z,0.70
2022-09-25T17:40:48.612Z,0.73
2022-09-25T17:43:34.284Z,0.60
2022-09-25T17:46:20.304Z,0.70
2022-09-25T17:49:06.038Z,0.73
2022-09-25T17:51:52.496Z,0.60
2022-09-25T17:54:38.045Z,0.65
2022-09-25T17:57:23.342Z,0.60
2022-09-25T18:00:10.087Z,0.45
2022-09-25T18:02:55.715Z,0.40
2022-09-25T18:05:42.751Z,0.63
2022-09-25T18:08:28.474Z,0.85
2022-09-25T18:11:15.386Z,0.80
2022-09-25T18:14:02.002Z,1.00
2022-09-25T18:16:47.372Z,1.35
2022-09-25T18:19:51.440Z,1.17
2022-09-25T18:22:38.097Z,1.73
2022-09-25T18:25:24.213Z,0.68
2022-09-25T18:28:09.572Z,1.90
2022-09-25T18:30:56.747Z,2.25
2022-09-25T18:33:47.156Z,0.70
2022-09-25T18:36:32.933Z,1.15
2022-09-25T18:39:20.502Z,0.93
2022-09-25T18:42:06.156Z,0.80
2022-09-25T18:44:51.482Z,0.60
2022-09-25T18:47:36.827Z,1.20
2022-09-25T18:50:22.738Z,3.25
2022-09-25T18:53:08.071Z,2.97
2022-09-25T18:55:59.388Z,5.00
2022-09-25T18:58:44.878Z,0.90
2022-09-25T19:01:30.397Z,0.90
2022-09-25T19:04:16.897Z,0.82
2022-09-25T19:07:02.701Z,0.77
2022-09-25T19:09:48.502Z,0.80
2022-09-25T19:12:34.076Z,1.00
2022-09-25T19:15:19.357Z,4.25
2022-09-25T19:18:06.602Z,0.90
2022-09-25T19:20:55.743Z,1.10
2022-09-25T19:23:47.662Z,1.10
2022-09-25T19:26:33.304Z,2.53
2022-09-25T19:29:18.884Z,1.63
2022-09-25T19:32:05.822Z,0.95
2022-09-25T19:34:51.853Z,1.00
2022-09-25T19:37:38.168Z,0.80
2022-09-25T19:40:39.527Z,1.10
2022-09-25T19:43:25.251Z,1.10
2022-09-25T19:46:17.073Z,1.50
2022-09-25T19:49:02.550Z,1.27
2022-09-25T19:51:47.922Z,1.13
2022-09-25T19:54:34.079Z,1.53
2022-09-25T19:57:19.769Z,1.10
2022-09-25T20:00:06.011Z,1.15
2022-09-25T20:02:51.546Z,0.77
2022-09-25T20:05:41.575Z,1.00
2022-09-25T20:08:27.092Z,1.60
2022-09-25T20:11:20.008Z,1.63
2022-09-25T20:14:06.238Z,1.50
2022-09-25T20:16:53.565Z,1.35
2022-09-25T20:19:39.086Z,1.45
2022-09-25T20:22:24.745Z,1.17
2022-09-25T20:25:11.008Z,1.60
2022-09-25T20:27:56.219Z,2.80
2022-09-25T20:30:41.697Z,1.00
2022-09-25T20:33:33.902Z,1.00
2022-09-25T20:36:20.845Z,1.10
2022-09-25T20:39:07.273Z,1.13
2022-09-25T20:41:52.820Z,1.17
2022-09-25T20:44:38.429Z,1.33
2022-09-25T20:47:24.132Z,1.08
2022-09-25T20:50:10.117Z,1.10
2022-09-25T20:52:56.621Z,1.50
2022-09-25T20:55:42.382Z,1.23
2022-09-25T20:58:28.953Z,1.58
2022-09-25T21:01:17.108Z,1.70
2022-09-25T21:04:04.925Z,4.60
2022-09-25T21:06:50.396Z,1.33
2022-09-25T21:09:35.877Z,3.28
2022-09-25T21:12:21.562Z,1.20
2022-09-25T21:15:07.265Z,2.13
2022-09-25T21:17:54.132Z,1.27
2022-09-25T21:20:40.417Z,0.98
2022-09-25T21:23:25.849Z,1.10
2022-09-25T21:26:13.777Z,1.35
2022-09-25T21:29:04.305Z,1.07
2022-09-25T21:31:50.952Z,1.10
2022-09-25T21:34:37.003Z,0.80
2022-09-25T21:37:22.293Z,1.10
2022-09-25T21:40:08.567Z,1.13
2022-09-25T21:42:54.801Z,1.13
2022-09-25T21:45:40.123Z,1.30
2022-09-25T21:48:26.827Z,1.30
2022-09-25T21:51:13.442Z,1.00
2022-09-25T21:54:00.911Z,1.55
2022-09-25T21:56:48.581Z,1.35
2022-09-25T21:59:33.917Z,0.80
2022-09-25T22:02:19.727Z,0.82
2022-09-25T22:05:05.363Z,0.73
2022-09-25T22:07:50.689Z,0.80
2022-09-25T22:10:36.014Z,0.80
2022-09-25T22:13:21.600Z,1.00
2022-09-25T22:16:12.861Z,0.80
2022-09-25T22:19:02.914Z,0.80
2022-09-25T22:21:50.056Z,0.75
2022-09-25T22:24:36.125Z,0.60
2022-09-25T22:27:21.869Z,0.80
2022-09-25T22:30:07.665Z,0.70
2022-09-25T22:32:53.060Z,1.10
2022-09-25T22:35:38.893Z,0.80
2022-09-25T22:38:24.180Z,1.10
2022-09-25T22:41:12.577Z,0.93
2022-09-25T22:44:00.678Z,1.10
2022-09-25T22:46:47.146Z,1.10
2022-09-25T22:49:32.685Z,1.10
2022-09-25T22:52:18.455Z,0.90
2022-09-25T22:55:03.928Z,0.90
2022-09-25T22:57:50.060Z,0.90
2022-09-25T23:00:35.752Z,0.82
2022-09-25T23:03:23.389Z,1.13
2022-09-25T23:06:10.509Z,1.13
2022-09-25T23:08:58.181Z,1.00
2022-09-25T23:11:44.331Z,2.03
2022-09-25T23:14:31.431Z,2.10
2022-09-25T23:17:17.029Z,0.73
2022-09-25T23:20:02.781Z,0.70
2022-09-25T23:22:48.505Z,0.85
2022-09-25T23:25:34.432Z,0.90
2022-09-25T23:28:20.174Z,0.80
2022-09-25T23:31:16.401Z,1.20
2022-09-25T23:34:02.236Z,1.10
2022-09-25T23:36:47.794Z,1.00
2022-09-25T23:39:33.549Z,1.45
2022-09-25T23:42:19.210Z,1.00
2022-09-25T23:45:04.912Z,1.00
2022-09-25T23:47:50.229Z,1.10
2022-09-25T23:50:35.869Z,1.10
2022-09-25T23:53:21.451Z,0.90
2022-09-25T23:56:08.988Z,1.08
2022-09-25T23:58:56.789Z,0.95
